Time;durP1;ratioP1;P1;durP2;ratioP2;P2;SDS_P1;SDS_P2;PMS_P1;PMS_P2;Temp;Humidity;BMP_temperature;BMP_pressure;BME280_temperature;BME280_humidity;BME280_pressure;Samples;Min_cycle;Max_cycle;Signal;HPM_P1;HPM_P2
2023/08/23 00:01:43;;;;;;;10.30;7.10;;;23.70;70.80;;;;;;5043770;28;20476;-77
2023/08/23 00:04:11;;;;;;;14.73;7.53;;;23.70;70.80;;;;;;5024852;28;20465;-79
2023/08/23 00:06:38;;;;;;;10.60;6.63;;;23.70;70.90;;;;;;5019257;28;20487;-76
2023/08/23 00:09:06;;;;;;;13.00;7.17;;;23.70;70.90;;;;;;5018901;28;20464;-79
2023/08/23 00:11:34;;;;;;;9.20;6.80;;;23.70;70.90;;;;;;5022849;28;20452;-77
2023/08/23 00:14:03;;;;;;;11.10;6.67;;;23.60;70.90;;;;;;5023080;28;21059;-78
2023/08/23 00:16:32;;;;;;;12.83;7.10;;;23.60;70.90;;;;;;5030839;28;20443;-78
2023/08/23 00:19:00;;;;;;;9.73;7.10;;;23.60;71.00;;;;;;5028037;28;20464;-78
2023/08/23 00:21:28;;;;;;;8.70;6.80;;;23.60;71.00;;;;;;5029385;28;20560;-78
2023/08/23 00:23:56;;;;;;;10.43;6.53;;;23.60;70.90;;;;;;5028818;28;20488;-77
2023/08/23 00:26:24;;;;;;;9.93;7.30;;;23.50;70.80;;;;;;5019196;28;21521;-78
2023/08/23 00:28:52;;;;;;;12.00;7.40;;;23.50;70.80;;;;;;5018247;28;20458;-78
2023/08/23 00:31:21;;;;;;;10.83;8.10;;;23.40;70.90;;;;;;5015383;28;20702;-79
2023/08/23 00:33:51;;;;;;;9.57;6.70;;;23.40;70.90;;;;;;5022553;28;20503;-79
2023/08/23 00:36:20;;;;;;;9.43;7.23;;;23.30;70.90;;;;;;5024486;28;20517;-79
2023/08/23 00:38:47;;;;;;;15.43;7.73;;;23.30;71.10;;;;;;5023926;28;20556;-79
2023/08/23 00:41:16;;;;;;;11.13;7.70;;;23.30;71.20;;;;;;4987923;28;1117039;-78
2023/08/23 00:43:44;;;;;;;16.10;8.37;;;23.30;71.20;;;;;;5020310;28;20213;-77
2023/08/23 00:46:13;;;;;;;17.00;7.63;;;23.20;71.20;;;;;;5021146;28;20550;-79
2023/08/23 00:48:43;;;;;;;12.57;7.30;;;23.20;71.10;;;;;;5018661;28;20504;-77
2023/08/23 00:51:15;;;;;;;13.77;7.47;;;23.10;71.20;;;;;;5025762;28;20467;-79
2023/08/23 00:53:43;;;;;;;14.70;7.60;;;23.10;71.30;;;;;;5023342;28;21007;-79
2023/08/23 00:56:12;;;;;;;11.90;8.60;;;23.10;71.40;;;;;;5025740;28;20458;-78
2023/08/23 00:58:41;;;;;;;12.63;8.80;;;23.10;71.60;;;;;;5021888;28;20464;-79
2023/08/23 01:01:09;;;;;;;13.17;9.20;;;23.10;71.70;;;;;;5028296;28;20479;-78
2023/08/23 01:03:37;;;;;;;14.60;8.13;;;23.10;71.70;;;;;;5022369;28;20982;-77
2023/08/23 01:06:27;;;;;;;13.30;7.90;;;23.00;71.80;;;;;;5047943;28;21206;-78
2023/08/23 01:09:04;;;;;;;12.73;8.50;;;23.00;71.80;;;;;;5021202;28;20472;-77
2023/08/23 01:11:38;;;;;;;16.63;8.30;;;23.00;71.90;;;;;;5018120;28;20470;-76
2023/08/23 01:14:12;;;;;;;16.00;8.43;;;23.00;72.10;;;;;;5032401;28;20461;-78
2023/08/23 01:16:45;;;;;;;14.90;8.47;;;23.00;72.10;;;;;;5024135;28;20539;-79
2023/08/23 01:19:28;;;;;;;11.50;8.40;;;23.00;72.10;;;;;;5034094;28;20458;-78
2023/08/23 01:21:59;;;;;;;18.43;9.87;;;22.90;72.20;;;;;;5024468;28;20510;-79
2023/08/23 01:24:29;;;;;;;14.90;8.80;;;22.90;72.30;;;;;;5019024;28;20464;-79
2023/08/23 01:26:59;;;;;;;10.87;8.10;;;22.90;72.30;;;;;;5019723;28;21057;-81
2023/08/23 01:29:28;;;;;;;15.60;8.70;;;22.90;72.30;;;;;;5018185;28;20458;-78
2023/08/23 01:32:05;;;;;;;11.10;8.20;;;22.90;72.30;;;;;;5026110;28;21346;-80
2023/08/23 01:38:48;;;;;;;10.83;8.00;;;22.90;72.30;;;;;;5024465;28;20454;-79
2023/08/23 01:41:18;;;;;;;14.37;7.80;;;22.80;72.40;;;;;;5027519;28;20908;-80
2023/08/23 01:43:47;;;;;;;11.40;8.33;;;22.80;72.40;;;;;;5029700;28;20476;-78
2023/08/23 01:46:16;;;;;;;12.40;7.40;;;22.80;72.40;;;;;;5020083;28;20547;-80
2023/08/23 01:48:44;;;;;;;15.30;8.80;;;22.90;72.40;;;;;;5024109;28;21372;-80
2023/08/23 01:51:12;;;;;;;13.53;8.80;;;22.80;72.40;;;;;;5029629;28;21025;-78
2023/08/23 01:53:41;;;;;;;9.97;7.87;;;22.80;72.40;;;;;;5028250;28;20456;-78
2023/08/23 01:56:09;;;;;;;11.43;8.00;;;22.80;72.40;;;;;;5024607;28;20546;-80
2023/08/23 01:58:38;;;;;;;11.77;8.03;;;22.80;72.40;;;;;;5032978;28;20958;-77
2023/08/23 02:01:06;;;;;;;10.77;7.77;;;22.80;72.50;;;;;;5032954;28;20559;-79
2023/08/23 02:03:34;;;;;;;11.73;8.70;;;22.80;72.50;;;;;;5024754;28;20452;-78
2023/08/23 02:06:02;;;;;;;10.80;7.30;;;22.80;72.50;;;;;;5022813;28;20467;-77
2023/08/23 02:08:30;;;;;;;11.73;7.80;;;22.80;72.50;;;;;;5024454;28;20485;-78
2023/08/23 02:10:58;;;;;;;10.30;8.00;;;22.80;72.50;;;;;;5020043;28;20459;-79
2023/08/23 02:13:26;;;;;;;11.70;8.43;;;22.70;72.40;;;;;;5023874;28;21119;-78
2023/08/23 02:15:55;;;;;;;10.60;7.20;;;22.70;72.40;;;;;;5022855;28;20864;-76
2023/08/23 02:18:23;;;;;;;11.07;7.90;;;22.70;72.50;;;;;;5026909;28;20466;-78
2023/08/23 02:20:56;;;;;;;10.37;7.97;;;22.70;72.50;;;;;;5020861;28;20557;-79
2023/08/23 02:23:25;;;;;;;10.47;7.57;;;22.70;72.50;;;;;;5029468;28;20992;-78
2023/08/23 02:25:53;;;;;;;12.60;8.30;;;22.60;72.60;;;;;;5032892;28;21140;-78
2023/08/23 02:28:21;;;;;;;13.57;8.40;;;22.60;72.60;;;;;;5029152;28;20980;-80
2023/08/23 02:30:49;;;;;;;13.57;8.90;;;22.60;72.70;;;;;;5031567;28;20467;-80
2023/08/23 02:33:19;;;;;;;10.50;8.90;;;22.60;72.70;;;;;;5023411;28;20520;-80
2023/08/23 02:35:47;;;;;;;11.80;8.90;;;22.60;72.60;;;;;;5023037;28;20460;-79
2023/08/23 02:38:16;;;;;;;13.57;8.30;;;22.50;72.60;;;;;;5029116;28;20464;-79
2023/08/23 02:40:44;;;;;;;11.10;7.90;;;22.50;72.60;;;;;;5023269;28;20539;-79
2023/08/23 02:43:13;;;;;;;12.70;8.87;;;22.50;72.80;;;;;;5019069;28;20467;-79
2023/08/23 02:45:41;;;;;;;11.30;9.40;;;22.50;72.80;;;;;;5022988;28;20468;-80
2023/08/23 02:48:11;;;;;;;18.30;10.40;;;22.50;72.80;;;;;;5024474;28;20578;-81
2023/08/23 02:50:42;;;;;;;13.30;8.97;;;22.40;72.90;;;;;;5025574;28;20451;-79
2023/08/23 02:53:11;;;;;;;11.57;8.73;;;22.40;72.90;;;;;;5021159;28;20474;-80
2023/08/23 02:55:40;;;;;;;14.37;9.83;;;22.40;72.90;;;;;;5021598;28;21197;-79
2023/08/23 02:58:08;;;;;;;15.37;9.07;;;22.40;73.00;;;;;;5024338;28;20456;-78
2023/08/23 03:00:36;;;;;;;14.30;9.33;;;22.40;73.00;;;;;;5020194;28;20464;-78
2023/08/23 03:03:04;;;;;;;14.53;8.93;;;22.30;73.00;;;;;;5023008;28;20463;-78
2023/08/23 03:05:33;;;;;;;12.20;9.47;;;22.30;73.10;;;;;;5022297;28;20487;-80
2023/08/23 03:08:02;;;;;;;12.63;10.00;;;22.30;73.10;;;;;;5024431;28;20479;-80
2023/08/23 03:10:30;;;;;;;12.10;9.80;;;22.30;73.30;;;;;;5028953;28;20456;-79
2023/08/23 03:12:58;;;;;;;12.33;9.87;;;22.30;73.40;;;;;;5026976;28;20470;-80
2023/08/23 03:15:27;;;;;;;14.27;10.20;;;22.20;73.30;;;;;;5018682;28;20920;-78
2023/08/23 03:17:55;;;;;;;9.80;8.37;;;22.20;73.40;;;;;;5040040;28;20482;-81
2023/08/23 03:20:25;;;;;;;10.60;9.30;;;22.20;73.40;;;;;;5024248;28;20490;-80
2023/08/23 03:22:53;;;;;;;12.50;9.80;;;22.20;73.40;;;;;;5022651;28;21018;-80
2023/08/23 03:25:22;;;;;;;14.83;9.90;;;22.20;73.40;;;;;;5021920;28;20460;-78
2023/08/23 03:27:52;;;;;;;14.87;9.90;;;22.20;73.40;;;;;;5015247;28;20483;-78
2023/08/23 03:30:20;;;;;;;19.40;11.40;;;22.10;73.50;;;;;;5025135;28;20455;-79
2023/08/23 03:32:48;;;;;;;14.87;10.93;;;22.20;73.50;;;;;;5018359;28;20884;-79
2023/08/23 03:35:17;;;;;;;11.93;9.73;;;22.10;73.60;;;;;;5028054;28;20816;-78
2023/08/23 03:37:45;;;;;;;12.47;10.33;;;22.10;73.70;;;;;;5026551;28;20455;-78
2023/08/23 03:40:14;;;;;;;13.87;11.00;;;22.10;73.70;;;;;;5028858;28;20451;-79
2023/08/23 03:42:43;;;;;;;12.87;10.33;;;22.10;73.80;;;;;;5027344;28;20470;-78
2023/08/23 03:45:12;;;;;;;12.00;9.73;;;22.10;73.70;;;;;;5023864;28;20456;-77
2023/08/23 03:47:40;;;;;;;14.67;11.53;;;22.00;73.70;;;;;;5034043;28;20483;-80
2023/08/23 03:50:08;;;;;;;13.63;10.20;;;22.00;73.70;;;;;;5019631;28;20456;-79
2023/08/23 03:52:36;;;;;;;14.70;10.80;;;22.00;73.70;;;;;;5023007;28;20862;-80
2023/08/23 03:55:06;;;;;;;14.87;11.60;;;22.00;73.80;;;;;;5024616;28;20969;-79
2023/08/23 03:57:34;;;;;;;13.97;10.87;;;22.00;73.90;;;;;;5026893;28;20496;-78
2023/08/23 04:00:04;;;;;;;13.83;10.13;;;21.90;73.90;;;;;;5029553;28;20447;-79
2023/08/23 04:02:43;;;;;;;14.83;10.80;;;21.90;74.00;;;;;;5024446;28;20495;-77
2023/08/23 04:05:11;;;;;;;16.80;11.67;;;21.90;74.00;;;;;;5025518;28;20460;-78
2023/08/23 04:07:40;;;;;;;13.33;11.67;;;21.90;74.00;;;;;;5022470;28;20483;-79
2023/08/23 04:10:10;;;;;;;17.23;11.83;;;21.80;73.90;;;;;;5020649;28;21187;-79
2023/08/23 04:12:38;;;;;;;15.53;11.80;;;21.80;73.90;;;;;;5026364;28;20847;-77
2023/08/23 04:15:09;;;;;;;17.43;13.13;;;21.80;73.90;;;;;;5019024;28;20452;-79
2023/08/23 04:17:37;;;;;;;14.70;12.83;;;21.80;74.10;;;;;;5020077;28;20808;-76
2023/08/23 04:20:06;;;;;;;17.57;12.67;;;21.80;74.10;;;;;;5029074;28;20458;-80
2023/08/23 04:22:34;;;;;;;15.50;12.23;;;21.80;74.10;;;;;;5030250;28;21058;-77
2023/08/23 04:25:02;;;;;;;15.23;13.00;;;21.80;74.10;;;;;;5028275;28;21012;-77
2023/08/23 04:27:30;;;;;;;17.00;13.47;;;21.80;74.10;;;;;;5021102;28;20511;-80
2023/08/23 04:29:58;;;;;;;15.07;12.43;;;21.80;74.20;;;;;;5024419;28;20499;-79
2023/08/23 04:32:27;;;;;;;14.37;12.87;;;21.80;74.30;;;;;;5020246;28;21002;-78
2023/08/23 04:34:55;;;;;;;17.70;12.90;;;21.80;74.30;;;;;;5024813;28;20460;-79
2023/08/23 04:37:24;;;;;;;14.73;12.27;;;21.80;74.30;;;;;;5022582;28;20509;-80
2023/08/23 04:39:53;;;;;;;15.87;11.73;;;21.80;74.30;;;;;;5025839;28;20461;-78
2023/08/23 04:42:21;;;;;;;15.90;11.50;;;21.70;74.20;;;;;;5027552;28;20893;-77
2023/08/23 04:44:49;;;;;;;18.70;12.27;;;21.70;74.20;;;;;;5025154;28;20543;-79
2023/08/23 04:47:18;;;;;;;13.43;11.80;;;21.70;74.20;;;;;;5028044;28;20470;-78
2023/08/23 04:49:49;;;;;;;14.97;11.93;;;21.70;74.30;;;;;;5024900;28;20480;-78
2023/08/23 04:52:17;;;;;;;16.27;12.33;;;21.70;74.30;;;;;;5025296;28;20546;-76
2023/08/23 04:54:45;;;;;;;16.80;11.80;;;21.80;74.30;;;;;;5037142;28;21077;-81
2023/08/23 04:57:13;;;;;;;13.47;12.03;;;21.80;74.40;;;;;;5022863;28;20547;-79
2023/08/23 04:59:41;;;;;;;15.80;12.00;;;21.80;74.30;;;;;;5026184;28;20454;-79
2023/08/23 05:02:09;;;;;;;16.83;11.23;;;21.80;74.30;;;;;;5026598;28;21286;-80
2023/08/23 05:04:38;;;;;;;14.33;11.03;;;21.90;74.50;;;;;;5023163;28;20456;-82
2023/08/23 05:07:08;;;;;;;15.13;11.50;;;22.10;74.60;;;;;;5027468;28;20455;-81
2023/08/23 05:09:36;;;;;;;13.97;10.73;;;22.50;74.30;;;;;;5029520;28;20924;-80
2023/08/23 05:12:05;;;;;;;12.30;10.47;;;23.00;73.80;;;;;;5024579;28;20467;-79
2023/08/23 05:14:33;;;;;;;16.27;9.80;;;23.50;73.10;;;;;;5023535;28;20491;-80
2023/08/23 05:17:02;;;;;;;13.33;10.73;;;23.90;72.60;;;;;;5027029;28;20459;-77
2023/08/23 05:19:30;;;;;;;12.37;9.40;;;24.30;72.10;;;;;;5029278;28;20985;-81
2023/08/23 05:21:58;;;;;;;18.50;10.37;;;24.70;71.50;;;;;;5022782;28;20549;-79
2023/08/23 05:24:27;;;;;;;13.83;10.10;;;25.10;70.90;;;;;;5030887;28;20458;-77
2023/08/23 05:26:57;;;;;;;13.87;10.37;;;25.50;70.30;;;;;;5026454;28;20906;-82
2023/08/23 05:29:25;;;;;;;13.40;10.27;;;26.00;69.50;;;;;;5033995;28;20474;-79
2023/08/23 05:31:53;;;;;;;12.10;10.40;;;26.40;68.80;;;;;;5025658;28;20588;-77
2023/08/23 05:34:21;;;;;;;13.23;9.60;;;26.80;68.10;;;;;;5024717;28;20546;-79
2023/08/23 05:36:49;;;;;;;14.70;10.37;;;27.30;67.20;;;;;;5026056;28;20835;-79
2023/08/23 05:39:17;;;;;;;13.83;9.70;;;27.80;66.40;;;;;;5024672;28;20466;-80
2023/08/23 05:41:47;;;;;;;12.83;9.90;;;28.30;65.50;;;;;;5025356;28;20471;-79
2023/08/23 05:44:15;;;;;;;13.83;9.97;;;28.80;64.50;;;;;;5033284;28;20454;-79
2023/08/23 05:46:43;;;;;;;16.57;9.77;;;29.30;63.60;;;;;;5026974;28;20448;-78
2023/08/23 05:49:11;;;;;;;13.37;9.37;;;29.70;62.80;;;;;;5023789;28;21012;-79
2023/08/23 05:51:39;;;;;;;12.50;9.87;;;30.10;61.60;;;;;;5026293;28;20471;-79
2023/08/23 05:54:07;;;;;;;10.63;9.40;;;29.60;60.50;;;;;;5022455;28;20460;-79
2023/08/23 05:56:36;;;;;;;13.93;11.33;;;28.60;60.90;;;;;;5024027;28;20461;-80
2023/08/23 05:59:05;;;;;;;16.80;11.37;;;27.60;61.90;;;;;;5026951;28;20474;-77
2023/08/23 06:01:34;;;;;;;19.20;12.53;;;26.80;63.10;;;;;;5026930;28;20483;-79
2023/08/23 06:04:01;;;;;;;13.53;11.07;;;26.10;64.10;;;;;;5024858;28;20466;-77
2023/08/23 06:06:29;;;;;;;16.00;11.07;;;25.60;65.10;;;;;;5023033;28;20467;-79
2023/08/23 06:08:58;;;;;;;20.47;11.10;;;25.10;66.00;;;;;;5023833;28;20626;-79
2023/08/23 06:11:27;;;;;;;15.17;11.70;;;24.80;66.70;;;;;;5027081;28;20810;-77
2023/08/23 06:13:56;;;;;;;17.23;10.87;;;24.50;67.40;;;;;;5035767;28;20455;-79
2023/08/23 06:16:25;;;;;;;20.70;10.80;;;24.30;68.10;;;;;;5029369;28;20464;-77
2023/08/23 06:18:53;;;;;;;18.10;12.00;;;24.10;68.70;;;;;;5026732;28;20462;-81
2023/08/23 06:21:21;;;;;;;15.70;12.67;;;23.90;69.10;;;;;;5028174;28;21125;-79
2023/08/23 06:23:49;;;;;;;16.87;11.53;;;23.80;69.60;;;;;;5027430;28;20460;-78
2023/08/23 06:26:18;;;;;;;16.17;11.50;;;23.80;70.00;;;;;;5024624;28;20456;-81
2023/08/23 06:28:46;;;;;;;12.60;10.60;;;23.70;70.40;;;;;;5027060;28;20554;-80
2023/08/23 06:31:19;;;;;;;16.73;11.53;;;23.60;70.80;;;;;;5037205;28;20465;-80
2023/08/23 06:33:49;;;;;;;15.83;11.93;;;23.60;71.20;;;;;;5020857;28;20452;-81
2023/08/23 06:36:18;;;;;;;21.23;12.50;;;23.60;71.50;;;;;;5025315;28;20918;-80
2023/08/23 06:38:47;;;;;;;15.20;11.30;;;23.50;71.80;;;;;;5027272;28;20459;-82
2023/08/23 06:41:15;;;;;;;17.10;10.87;;;23.40;72.00;;;;;;5026523;28;20903;-83
2023/08/23 06:43:44;;;;;;;16.23;10.10;;;23.40;72.30;;;;;;5020671;28;20471;-82
2023/08/23 06:46:12;;;;;;;16.43;11.33;;;23.40;72.60;;;;;;5024262;28;21069;-79
2023/08/23 06:48:40;;;;;;;20.10;11.00;;;23.50;72.80;;;;;;5031192;28;20456;-82
2023/08/23 06:51:09;;;;;;;36.30;25.03;;;23.50;72.90;;;;;;5027031;28;20495;-80
2023/08/23 06:53:37;;;;;;;17.43;12.63;;;23.50;73.10;;;;;;5022783;28;20462;-78
2023/08/23 06:56:08;;;;;;;14.93;10.47;;;23.50;73.20;;;;;;5025638;28;20537;-80
2023/08/23 06:58:36;;;;;;;16.40;10.63;;;23.50;73.40;;;;;;5022583;28;20471;-82
2023/08/23 07:01:07;;;;;;;11.97;8.90;;;23.50;73.50;;;;;;5026071;28;20472;-81
2023/08/23 07:03:35;;;;;;;14.87;8.60;;;23.50;73.60;;;;;;5026097;28;20455;-78
2023/08/23 07:06:03;;;;;;;10.60;8.30;;;23.50;73.60;;;;;;5026868;28;20474;-82
2023/08/23 07:08:33;;;;;;;13.77;9.00;;;23.50;73.70;;;;;;5017264;28;20478;-81
2023/08/23 07:11:01;;;;;;;12.90;7.93;;;23.40;73.70;;;;;;5027713;28;20480;-81
2023/08/23 07:13:29;;;;;;;16.53;8.40;;;23.40;73.80;;;;;;5021151;28;20471;-80
2023/08/23 07:15:57;;;;;;;14.33;8.10;;;23.30;73.90;;;;;;5023077;28;20470;-81
2023/08/23 07:18:25;;;;;;;12.60;8.07;;;23.30;74.00;;;;;;5025821;28;20485;-80
2023/08/23 07:20:53;;;;;;;14.43;8.87;;;23.40;74.10;;;;;;5028887;28;20568;-81
2023/08/23 07:23:21;;;;;;;14.17;7.20;;;23.40;74.20;;;;;;5025901;28;20466;-80
2023/08/23 07:25:50;;;;;;;13.20;8.37;;;23.40;74.30;;;;;;5022832;28;20843;-78
2023/08/23 07:28:18;;;;;;;15.90;7.73;;;23.40;74.30;;;;;;5025684;28;20514;-80
2023/08/23 07:30:47;;;;;;;13.03;7.97;;;23.50;74.30;;;;;;5028476;28;20482;-78
2023/08/23 07:33:15;;;;;;;11.20;7.77;;;23.50;74.30;;;;;;5025895;28;20555;-79
2023/08/23 07:35:43;;;;;;;15.33;8.47;;;23.50;74.30;;;;;;5022494;28;20475;-80
2023/08/23 07:38:11;;;;;;;11.97;7.80;;;23.50;74.30;;;;;;5023913;28;20456;-81
2023/08/23 07:40:39;;;;;;;13.20;8.80;;;23.50;74.30;;;;;;5019229;28;20856;-81
2023/08/23 07:43:09;;;;;;;12.00;7.80;;;23.60;74.30;;;;;;5026366;28;20473;-79
2023/08/23 07:45:37;;;;;;;16.77;7.70;;;23.60;74.40;;;;;;5025853;28;20496;-79
2023/08/23 07:48:05;;;;;;;11.67;7.60;;;23.60;74.40;;;;;;5029944;28;20470;-80
2023/08/23 07:50:33;;;;;;;14.07;8.60;;;23.70;74.40;;;;;;5029954;28;20475;-81
2023/08/23 07:53:01;;;;;;;13.13;7.67;;;23.70;74.40;;;;;;5026992;28;20483;-81
2023/08/23 07:55:29;;;;;;;15.27;7.87;;;23.70;74.40;;;;;;5020749;28;20457;-80
2023/08/23 07:57:57;;;;;;;9.93;6.53;;;23.70;74.30;;;;;;5026156;28;20883;-81
2023/08/23 08:00:26;;;;;;;13.37;7.37;;;23.80;74.30;;;;;;5023671;28;20440;-80
2023/08/23 08:02:54;;;;;;;10.17;6.90;;;23.80;74.30;;;;;;5025856;28;20459;-80
2023/08/23 08:05:22;;;;;;;14.97;6.70;;;23.90;74.30;;;;;;5021587;28;20463;-81
2023/08/23 08:07:50;;;;;;;12.57;6.90;;;23.90;74.10;;;;;;5025512;28;20460;-81
2023/08/23 08:10:21;;;;;;;12.63;6.87;;;24.00;74.00;;;;;;5027799;28;20554;-81
2023/08/23 08:12:49;;;;;;;9.23;5.90;;;24.00;73.90;;;;;;5031094;28;20438;-82
2023/08/23 08:15:18;;;;;;;13.40;6.47;;;24.00;73.70;;;;;;5026778;28;20460;-80
2023/08/23 08:17:50;;;;;;;14.17;7.00;;;24.10;73.70;;;;;;5025687;28;21256;-80
2023/08/23 08:20:19;;;;;;;14.50;6.60;;;24.10;73.60;;;;;;5028070;28;20443;-80
2023/08/23 08:22:47;;;;;;;14.67;5.47;;;24.10;73.50;;;;;;5030197;28;20542;-80
2023/08/23 08:25:16;;;;;;;14.77;6.27;;;24.20;73.40;;;;;;5022154;28;20825;-80
2023/08/23 08:27:44;;;;;;;12.60;5.90;;;24.20;73.20;;;;;;5025206;28;20515;-80
2023/08/23 08:30:14;;;;;;;10.67;5.77;;;24.30;73.00;;;;;;5018511;28;20492;-79
2023/08/23 08:32:42;;;;;;;12.10;5.10;;;24.30;72.90;;;;;;5004974;28;21409;-79
2023/08/23 08:35:12;;;;;;;11.73;7.00;;;24.30;72.70;;;;;;5013277;28;20463;-78
2023/08/23 08:37:39;;;;;;;13.17;5.60;;;24.30;72.60;;;;;;5004121;28;20950;-77
2023/08/23 08:40:09;;;;;;;15.17;7.10;;;24.30;72.50;;;;;;5004864;28;20454;-78
2023/08/23 08:42:37;;;;;;;9.70;6.00;;;24.40;72.50;;;;;;5002203;28;20465;-80
2023/08/23 08:45:06;;;;;;;13.00;6.27;;;24.40;72.50;;;;;;5011359;28;20448;-80
2023/08/23 08:47:34;;;;;;;12.60;6.03;;;24.40;72.40;;;;;;5005703;28;20457;-79
2023/08/23 08:50:03;;;;;;;9.27;5.20;;;24.50;72.20;;;;;;5009758;28;21021;-80
2023/08/23 08:52:32;;;;;;;10.67;5.80;;;24.50;72.00;;;;;;5012916;28;20552;-80
2023/08/23 08:55:02;;;;;;;9.37;5.50;;;24.50;71.70;;;;;;5009585;28;20480;-78
2023/08/23 08:57:31;;;;;;;10.57;6.00;;;24.60;71.60;;;;;;5015587;28;20459;-80
2023/08/23 09:00:00;;;;;;;14.40;6.50;;;24.60;71.50;;;;;;5011657;28;20466;-82
2023/08/23 09:02:30;;;;;;;11.10;5.17;;;24.70;71.40;;;;;;5025483;28;20471;-81
2023/08/23 09:04:59;;;;;;;10.37;5.67;;;24.70;71.20;;;;;;5026715;28;20471;-80
2023/08/23 09:07:27;;;;;;;10.53;5.80;;;24.80;71.10;;;;;;5025515;28;20454;-79
2023/08/23 09:09:57;;;;;;;15.00;5.10;;;24.80;70.90;;;;;;5026959;28;20915;-81
2023/08/23 09:12:25;;;;;;;11.67;5.00;;;24.80;70.70;;;;;;5026171;28;21017;-80
2023/08/23 09:14:53;;;;;;;9.60;4.80;;;24.80;70.40;;;;;;5024528;28;20837;-79
2023/08/23 09:17:22;;;;;;;11.30;5.20;;;24.90;70.20;;;;;;5033925;28;20470;-79
2023/08/23 09:19:52;;;;;;;11.83;5.40;;;24.90;69.90;;;;;;5026093;28;20503;-79
2023/08/23 09:22:21;;;;;;;10.37;5.57;;;25.00;69.80;;;;;;5032628;28;20450;-78
2023/08/23 09:24:49;;;;;;;10.73;4.67;;;25.00;69.60;;;;;;5029380;28;20879;-80
2023/08/23 09:27:20;;;;;;;12.07;4.63;;;25.10;69.40;;;;;;5034722;28;20466;-78
2023/08/23 09:30:06;;;;;;;10.47;4.97;;;25.20;69.10;;;;;;5026065;28;20468;-81
2023/08/23 09:32:34;;;;;;;8.70;5.10;;;25.20;68.80;;;;;;5028381;28;20529;-79
2023/08/23 09:35:14;;;;;;;6.23;3.73;;;25.20;68.50;;;;;;5021113;28;20471;-79
2023/08/23 09:37:43;;;;;;;7.00;3.90;;;25.20;67.80;;;;;;5037206;28;20518;-81
2023/08/23 09:40:19;;;;;;;10.17;4.10;;;25.20;67.80;;;;;;5036433;28;20466;-80
2023/08/23 09:42:49;;;;;;;9.00;4.40;;;25.30;67.50;;;;;;5026033;28;21044;-81
2023/08/23 09:45:20;;;;;;;10.33;4.17;;;25.30;67.30;;;;;;5021583;28;20467;-79
2023/08/23 09:47:53;;;;;;;9.17;4.20;;;25.40;67.20;;;;;;5023212;28;20474;-80
2023/08/23 09:50:21;;;;;;;15.73;4.37;;;25.40;66.90;;;;;;5023530;28;20460;-81
2023/08/23 09:52:53;;;;;;;8.03;4.50;;;25.50;66.90;;;;;;5025368;28;20461;-81
2023/08/23 09:55:24;;;;;;;8.63;4.43;;;25.60;66.80;;;;;;5019604;28;20468;-79
2023/08/23 09:57:54;;;;;;;9.37;3.70;;;25.60;66.70;;;;;;5021427;28;20514;-79
2023/08/23 10:00:24;;;;;;;7.40;4.20;;;25.70;66.60;;;;;;5031004;28;20486;-80
2023/08/23 10:02:53;;;;;;;12.17;3.90;;;25.70;66.40;;;;;;5021721;28;21240;-80
2023/08/23 10:05:21;;;;;;;15.90;4.10;;;25.70;66.20;;;;;;5022819;28;20468;-81
2023/08/23 10:07:56;;;;;;;9.07;3.53;;;25.80;66.20;;;;;;5027387;28;21124;-79
2023/08/23 10:10:27;;;;;;;8.40;3.67;;;25.80;66.10;;;;;;5026197;28;20549;-80
2023/08/23 10:13:04;;;;;;;8.00;3.30;;;25.90;66.20;;;;;;5019174;28;20491;-79
2023/08/23 10:15:35;;;;;;;9.43;3.80;;;26.00;66.00;;;;;;5024857;28;20525;-78
2023/08/23 10:18:07;;;;;;;7.97;3.40;;;26.10;65.90;;;;;;5021576;28;20934;-79
2023/08/23 10:20:37;;;;;;;8.93;3.60;;;26.10;65.70;;;;;;5028009;28;20969;-79
2023/08/23 10:23:12;;;;;;;9.00;3.40;;;26.10;65.10;;;;;;5029372;28;20463;-79
2023/08/23 10:25:43;;;;;;;6.37;3.27;;;26.10;64.60;;;;;;5024311;28;20505;-80
2023/08/23 10:28:14;;;;;;;8.27;3.73;;;26.10;64.40;;;;;;5024468;28;20467;-80
2023/08/23 10:30:44;;;;;;;7.40;3.47;;;26.10;64.20;;;;;;5020688;28;20837;-81
2023/08/23 10:33:13;;;;;;;10.90;4.20;;;26.20;64.00;;;;;;5032961;28;20464;-78
2023/08/23 10:35:43;;;;;;;10.47;4.33;;;26.20;63.90;;;;;;5017863;28;20471;-80
2023/08/23 10:38:12;;;;;;;8.87;3.90;;;26.20;63.80;;;;;;5023779;28;20472;-79
2023/08/23 10:45:21;;;;;;;6.60;3.40;;;26.20;63.40;;;;;;5024201;28;20457;-80
2023/08/23 10:52:04;;;;;;;9.63;4.13;;;26.30;63.30;;;;;;5021402;28;20553;-80
2023/08/23 10:54:34;;;;;;;12.30;4.10;;;26.40;63.20;;;;;;5022035;28;20475;-80
2023/08/23 10:57:02;;;;;;;6.97;4.17;;;26.40;63.30;;;;;;5019875;28;20558;-80
2023/08/23 10:59:30;;;;;;;10.67;4.23;;;26.50;63.30;;;;;;5020291;28;20545;-81
2023/08/23 11:01:59;;;;;;;10.13;4.30;;;26.50;63.30;;;;;;5018774;28;20580;-78
2023/08/23 11:04:27;;;;;;;7.20;3.80;;;26.60;63.30;;;;;;5021061;28;20451;-78
2023/08/23 11:06:55;;;;;;;7.23;4.17;;;26.60;63.30;;;;;;5029198;28;20454;-81
2023/08/23 11:09:25;;;;;;;8.87;4.00;;;26.60;63.30;;;;;;5027952;28;20485;-78
2023/08/23 11:11:53;;;;;;;7.87;4.23;;;26.70;63.30;;;;;;5023152;28;20471;-79
2023/08/23 11:21:37;;;;;;;8.60;4.30;;;26.70;63.20;;;;;;5021527;28;20459;-81
2023/08/23 11:24:06;;;;;;;8.37;4.00;;;26.70;63.30;;;;;;5024605;28;20459;-77
2023/08/23 11:26:36;;;;;;;12.40;4.10;;;26.70;63.30;;;;;;5024402;28;20448;-80
2023/08/23 11:29:04;;;;;;;10.60;4.10;;;26.80;63.40;;;;;;5022996;28;20456;-80
2023/08/23 11:31:33;;;;;;;9.80;5.00;;;26.90;63.20;;;;;;5028712;28;20487;-78
2023/08/23 11:34:06;;;;;;;8.90;4.20;;;26.90;63.20;;;;;;5022936;28;20460;-80
2023/08/23 11:36:35;;;;;;;10.17;3.70;;;26.90;63.20;;;;;;5026908;28;20504;-80
2023/08/23 11:39:04;;;;;;;7.70;4.20;;;27.00;63.20;;;;;;5028848;28;20452;-78
2023/08/23 11:41:35;;;;;;;6.83;3.70;;;27.00;63.00;;;;;;5030583;28;20537;-80
2023/08/23 11:44:04;;;;;;;11.03;4.30;;;27.00;63.00;;;;;;5024283;28;20457;-79
2023/08/23 11:46:34;;;;;;;8.33;3.70;;;27.00;63.10;;;;;;5025449;28;20474;-78
2023/08/23 11:49:03;;;;;;;8.40;4.47;;;27.00;63.00;;;;;;5020905;28;20464;-80
2023/08/23 11:51:40;;;;;;;12.77;3.63;;;27.00;62.80;;;;;;5024815;28;21293;-78
2023/08/23 11:54:09;;;;;;;6.40;3.63;;;27.10;62.50;;;;;;5015384;28;20806;-80
2023/08/23 11:56:43;;;;;;;9.77;4.13;;;27.10;62.50;;;;;;5029567;28;20454;-77
2023/08/23 11:59:12;;;;;;;7.30;4.27;;;27.20;62.20;;;;;;5018901;28;20886;-79
2023/08/23 12:01:42;;;;;;;7.03;4.40;;;27.20;62.20;;;;;;5020982;28;20479;-78
2023/08/23 12:04:10;;;;;;;9.70;4.10;;;27.20;62.10;;;;;;5026774;28;20450;-79
2023/08/23 12:07:23;;;;;;;12.23;4.83;;;27.20;62.10;;;;;;5023954;28;21021;-79
2023/08/23 12:10:27;;;;;;;6.43;3.70;;;27.20;62.20;;;;;;5021283;28;20460;-80
2023/08/23 12:13:00;;;;;;;10.33;5.17;;;27.30;62.20;;;;;;5016636;28;20475;-81
2023/08/23 12:15:27;;;;;;;9.20;4.30;;;27.30;62.50;;;;;;5019101;28;20475;-79
2023/08/23 12:17:57;;;;;;;9.83;4.47;;;27.30;62.50;;;;;;5022941;28;20459;-79
2023/08/23 12:20:25;;;;;;;9.57;4.57;;;27.40;62.40;;;;;;5020522;28;20451;-78
2023/08/23 12:22:53;;;;;;;12.57;4.60;;;27.40;62.40;;;;;;5020594;28;20535;-80
2023/08/23 12:25:21;;;;;;;10.43;4.03;;;27.40;62.60;;;;;;5026325;28;20520;-79
2023/08/23 12:27:49;;;;;;;7.70;3.97;;;27.60;62.50;;;;;;5018842;28;20458;-82
2023/08/23 12:30:20;;;;;;;8.37;3.57;;;27.50;62.40;;;;;;5026088;28;20459;-81
2023/08/23 12:32:48;;;;;;;7.60;3.90;;;27.60;62.20;;;;;;5035858;28;20507;-79
2023/08/23 12:35:16;;;;;;;8.50;4.20;;;27.60;62.00;;;;;;5018217;28;20513;-80
2023/08/23 12:37:44;;;;;;;7.40;3.87;;;27.70;62.00;;;;;;5026843;28;20486;-81
2023/08/23 12:40:12;;;;;;;11.17;4.10;;;27.70;61.80;;;;;;5019948;28;20546;-81
2023/08/23 12:42:40;;;;;;;8.60;4.00;;;27.70;61.90;;;;;;5020682;28;20445;-80
2023/08/23 12:45:10;;;;;;;7.30;4.10;;;27.70;61.70;;;;;;5023061;28;20456;-79
2023/08/23 12:47:39;;;;;;;9.23;4.03;;;27.70;61.60;;;;;;5023482;28;20455;-81
2023/08/23 12:50:08;;;;;;;7.77;4.57;;;27.70;61.60;;;;;;5029381;28;20457;-80
2023/08/23 12:52:37;;;;;;;9.70;4.30;;;27.80;61.60;;;;;;5025526;28;20474;-77
2023/08/23 12:55:05;;;;;;;7.97;4.10;;;27.80;61.50;;;;;;5021138;28;20493;-79
2023/08/23 12:57:34;;;;;;;5.93;3.87;;;27.80;61.50;;;;;;5025720;28;20488;-80
2023/08/23 13:00:05;;;;;;;10.07;4.40;;;27.80;61.50;;;;;;5023485;28;20500;-80
2023/08/23 13:02:55;;;;;;;8.47;4.33;;;27.80;61.70;;;;;;5023151;28;20932;-78
2023/08/23 13:05:23;;;;;;;6.67;3.87;;;27.90;61.80;;;;;;5021692;28;21058;-78
2023/08/23 13:07:51;;;;;;;12.83;4.83;;;27.90;61.80;;;;;;5026436;28;20452;-80